sensor_id;sensor_type;location;lat;lon;timestamp;P1;durP1;ratioP1;P2;durP2;ratioP2
46365;SDS011;32073;49.166;8.076;2023-03-24T00:01:48;3.10;;;1.75;;
46365;SDS011;32073;49.166;8.076;2023-03-24T00:05:53;3.15;;;1.70;;
46365;SDS011;32073;49.166;8.076;2023-03-24T00:10:00;2.80;;;1.98;;
46365;SDS011;32073;49.166;8.076;2023-03-24T00:14:01;2.65;;;1.85;;
46365;SDS011;32073;49.166;8.076;2023-03-24T00:18:03;2.80;;;1.60;;
46365;SDS011;32073;49.166;8.076;2023-03-24T00:22:04;4.20;;;1.77;;
46365;SDS011;32073;49.166;8.076;2023-03-24T00:26:13;3.38;;;2.15;;
46365;SDS011;32073;49.166;8.076;2023-03-24T00:30:15;3.20;;;1.85;;
46365;SDS011;32073;49.166;8.076;2023-03-24T00:34:18;2.70;;;2.03;;
46365;SDS011;32073;49.166;8.076;2023-03-24T00:38:22;2.58;;;2.03;;
46365;SDS011;32073;49.166;8.076;2023-03-24T00:42:23;2.92;;;2.10;;
46365;SDS011;32073;49.166;8.076;2023-03-24T00:46:24;2.85;;;1.95;;
46365;SDS011;32073;49.166;8.076;2023-03-24T00:50:28;3.25;;;2.13;;
46365;SDS011;32073;49.166;8.076;2023-03-24T00:54:32;2.65;;;2.10;;
46365;SDS011;32073;49.166;8.076;2023-03-24T00:58:34;2.45;;;1.83;;
46365;SDS011;32073;49.166;8.076;2023-03-24T01:02:34;2.97;;;2.03;;
46365;SDS011;32073;49.166;8.076;2023-03-24T01:06:35;3.60;;;2.10;;
46365;SDS011;32073;49.166;8.076;2023-03-24T01:10:37;5.18;;;2.13;;
46365;SDS011;32073;49.166;8.076;2023-03-24T01:14:41;2.22;;;1.73;;
46365;SDS011;32073;49.166;8.076;2023-03-24T01:18:42;2.88;;;2.08;;
46365;SDS011;32073;49.166;8.076;2023-03-24T01:22:43;5.13;;;2.13;;
46365;SDS011;32073;49.166;8.076;2023-03-24T01:26:45;2.58;;;1.80;;
46365;SDS011;32073;49.166;8.076;2023-03-24T01:30:46;3.03;;;2.03;;
46365;SDS011;32073;49.166;8.076;2023-03-24T01:34:46;2.97;;;1.85;;
46365;SDS011;32073;49.166;8.076;2023-03-24T01:38:47;3.28;;;2.03;;
46365;SDS011;32073;49.166;8.076;2023-03-24T01:42:48;3.42;;;2.20;;
46365;SDS011;32073;49.166;8.076;2023-03-24T01:46:50;3.38;;;2.47;;
46365;SDS011;32073;49.166;8.076;2023-03-24T01:51:00;3.92;;;1.77;;
46365;SDS011;32073;49.166;8.076;2023-03-24T01:55:06;2.78;;;2.13;;
46365;SDS011;32073;49.166;8.076;2023-03-24T01:59:19;2.88;;;1.73;;
46365;SDS011;32073;49.166;8.076;2023-03-24T02:03:25;2.60;;;1.90;;
46365;SDS011;32073;49.166;8.076;2023-03-24T02:07:34;3.60;;;2.17;;
46365;SDS011;32073;49.166;8.076;2023-03-24T02:11:45;2.33;;;1.70;;
46365;SDS011;32073;49.166;8.076;2023-03-24T02:15:50;2.25;;;1.50;;
46365;SDS011;32073;49.166;8.076;2023-03-24T02:56:19;2.28;;;1.95;;
46365;SDS011;32073;49.166;8.076;2023-03-24T03:00:39;2.83;;;2.38;;
46365;SDS011;32073;49.166;8.076;2023-03-24T03:04:52;3.28;;;1.67;;
46365;SDS011;32073;49.166;8.076;2023-03-24T03:09:15;2.17;;;1.50;;
46365;SDS011;32073;49.166;8.076;2023-03-24T03:21:43;6.03;;;2.13;;
46365;SDS011;32073;49.166;8.076;2023-03-24T03:25:45;2.78;;;1.90;;
46365;SDS011;32073;49.166;8.076;2023-03-24T03:29:52;3.30;;;2.00;;
46365;SDS011;32073;49.166;8.076;2023-03-24T03:34:03;3.85;;;2.10;;
46365;SDS011;32073;49.166;8.076;2023-03-24T03:38:23;3.40;;;2.33;;
46365;SDS011;32073;49.166;8.076;2023-03-24T03:42:33;4.60;;;2.45;;
46365;SDS011;32073;49.166;8.076;2023-03-24T03:46:35;3.38;;;2.30;;
46365;SDS011;32073;49.166;8.076;2023-03-24T03:50:36;3.63;;;2.00;;
46365;SDS011;32073;49.166;8.076;2023-03-24T03:54:38;4.43;;;2.10;;
46365;SDS011;32073;49.166;8.076;2023-03-24T03:58:40;4.22;;;2.80;;
46365;SDS011;32073;49.166;8.076;2023-03-24T04:16:40;3.50;;;2.80;;
46365;SDS011;32073;49.166;8.076;2023-03-24T04:29:39;4.07;;;2.70;;
46365;SDS011;32073;49.166;8.076;2023-03-24T04:33:56;4.50;;;3.50;;
46365;SDS011;32073;49.166;8.076;2023-03-24T04:38:09;4.40;;;2.97;;
46365;SDS011;32073;49.166;8.076;2023-03-24T04:42:26;3.25;;;2.67;;
46365;SDS011;32073;49.166;8.076;2023-03-24T04:46:34;3.63;;;2.63;;
46365;SDS011;32073;49.166;8.076;2023-03-24T04:50:38;3.08;;;2.60;;
46365;SDS011;32073;49.166;8.076;2023-03-24T04:54:42;5.03;;;2.78;;
46365;SDS011;32073;49.166;8.076;2023-03-24T04:58:42;3.15;;;2.33;;
46365;SDS011;32073;49.166;8.076;2023-03-24T05:02:43;3.28;;;2.40;;
46365;SDS011;32073;49.166;8.076;2023-03-24T05:06:45;3.58;;;2.33;;
46365;SDS011;32073;49.166;8.076;2023-03-24T05:10:46;2.20;;;2.00;;
46365;SDS011;32073;49.166;8.076;2023-03-24T05:14:47;3.38;;;2.10;;
46365;SDS011;32073;49.166;8.076;2023-03-24T05:18:47;2.33;;;1.75;;
46365;SDS011;32073;49.166;8.076;2023-03-24T05:22:48;2.83;;;2.08;;
46365;SDS011;32073;49.166;8.076;2023-03-24T05:26:49;3.00;;;2.10;;
46365;SDS011;32073;49.166;8.076;2023-03-24T05:30:50;2.72;;;1.90;;
46365;SDS011;32073;49.166;8.076;2023-03-24T05:34:50;2.38;;;1.60;;
46365;SDS011;32073;49.166;8.076;2023-03-24T05:38:51;2.63;;;1.73;;
46365;SDS011;32073;49.166;8.076;2023-03-24T05:42:52;2.05;;;1.42;;
46365;SDS011;32073;49.166;8.076;2023-03-24T05:46:53;1.52;;;1.20;;
46365;SDS011;32073;49.166;8.076;2023-03-24T05:50:53;2.00;;;1.40;;
46365;SDS011;32073;49.166;8.076;2023-03-24T05:54:54;2.45;;;1.40;;
46365;SDS011;32073;49.166;8.076;2023-03-24T05:58:54;3.38;;;1.33;;
46365;SDS011;32073;49.166;8.076;2023-03-24T06:02:55;2.58;;;1.65;;
46365;SDS011;32073;49.166;8.076;2023-03-24T06:06:57;2.35;;;1.55;;
46365;SDS011;32073;49.166;8.076;2023-03-24T06:10:58;2.28;;;1.70;;
46365;SDS011;32073;49.166;8.076;2023-03-24T06:15:01;2.10;;;1.90;;
46365;SDS011;32073;49.166;8.076;2023-03-24T06:19:02;1.90;;;1.70;;
46365;SDS011;32073;49.166;8.076;2023-03-24T06:23:05;2.08;;;1.65;;
46365;SDS011;32073;49.166;8.076;2023-03-24T06:27:06;2.55;;;1.90;;
46365;SDS011;32073;49.166;8.076;2023-03-24T06:31:08;3.63;;;2.10;;
46365;SDS011;32073;49.166;8.076;2023-03-24T06:35:14;4.30;;;2.13;;
46365;SDS011;32073;49.166;8.076;2023-03-24T06:39:16;1.77;;;1.58;;
46365;SDS011;32073;49.166;8.076;2023-03-24T06:43:17;2.45;;;1.63;;
46365;SDS011;32073;49.166;8.076;2023-03-24T06:47:18;3.00;;;1.90;;
46365;SDS011;32073;49.166;8.076;2023-03-24T06:51:18;3.58;;;2.00;;
46365;SDS011;32073;49.166;8.076;2023-03-24T06:55:19;2.45;;;1.95;;
46365;SDS011;32073;49.166;8.076;2023-03-24T06:59:21;3.22;;;1.90;;
46365;SDS011;32073;49.166;8.076;2023-03-24T07:03:23;2.38;;;2.10;;
46365;SDS011;32073;49.166;8.076;2023-03-24T07:07:24;1.95;;;1.63;;
46365;SDS011;32073;49.166;8.076;2023-03-24T07:11:24;1.60;;;1.50;;
46365;SDS011;32073;49.166;8.076;2023-03-24T07:15:26;2.83;;;1.90;;
46365;SDS011;32073;49.166;8.076;2023-03-24T07:19:27;2.33;;;1.65;;
46365;SDS011;32073;49.166;8.076;2023-03-24T07:23:27;3.03;;;1.90;;
46365;SDS011;32073;49.166;8.076;2023-03-24T07:27:31;3.40;;;1.98;;
46365;SDS011;32073;49.166;8.076;2023-03-24T07:31:33;3.72;;;2.03;;
46365;SDS011;32073;49.166;8.076;2023-03-24T07:35:37;2.38;;;1.90;;
46365;SDS011;32073;49.166;8.076;2023-03-24T07:39:39;3.17;;;2.00;;
46365;SDS011;32073;49.166;8.076;2023-03-24T07:43:40;2.65;;;1.77;;
46365;SDS011;32073;49.166;8.076;2023-03-24T07:47:42;2.05;;;1.85;;
46365;SDS011;32073;49.166;8.076;2023-03-24T07:51:44;4.15;;;2.20;;
46365;SDS011;32073;49.166;8.076;2023-03-24T07:55:45;2.47;;;1.90;;
46365;SDS011;32073;49.166;8.076;2023-03-24T07:59:46;2.20;;;1.88;;
46365;SDS011;32073;49.166;8.076;2023-03-24T08:03:47;2.40;;;1.80;;
46365;SDS011;32073;49.166;8.076;2023-03-24T08:07:53;2.22;;;1.60;;
46365;SDS011;32073;49.166;8.076;2023-03-24T08:11:54;4.18;;;1.73;;
46365;SDS011;32073;49.166;8.076;2023-03-24T08:15:55;3.00;;;1.70;;
46365;SDS011;32073;49.166;8.076;2023-03-24T08:19:56;2.63;;;1.50;;
46365;SDS011;32073;49.166;8.076;2023-03-24T08:23:57;4.88;;;1.42;;
46365;SDS011;32073;49.166;8.076;2023-03-24T08:27:59;1.88;;;1.50;;
46365;SDS011;32073;49.166;8.076;2023-03-24T08:32:00;2.70;;;1.63;;
46365;SDS011;32073;49.166;8.076;2023-03-24T08:36:01;3.70;;;1.50;;
46365;SDS011;32073;49.166;8.076;2023-03-24T08:40:04;2.38;;;1.40;;
46365;SDS011;32073;49.166;8.076;2023-03-24T08:44:06;2.00;;;1.42;;
46365;SDS011;32073;49.166;8.076;2023-03-24T08:48:07;1.60;;;1.48;;
46365;SDS011;32073;49.166;8.076;2023-03-24T08:52:10;5.13;;;1.50;;
46365;SDS011;32073;49.166;8.076;2023-03-24T08:56:10;1.48;;;1.38;;
46365;SDS011;32073;49.166;8.076;2023-03-24T09:00:13;1.85;;;1.27;;
46365;SDS011;32073;49.166;8.076;2023-03-24T09:04:15;1.77;;;1.35;;
46365;SDS011;32073;49.166;8.076;2023-03-24T09:08:17;3.13;;;1.80;;
46365;SDS011;32073;49.166;8.076;2023-03-24T09:12:18;2.50;;;1.55;;
46365;SDS011;32073;49.166;8.076;2023-03-24T09:16:18;3.45;;;1.70;;
46365;SDS011;32073;49.166;8.076;2023-03-24T09:20:20;3.28;;;1.60;;
46365;SDS011;32073;49.166;8.076;2023-03-24T09:24:21;2.42;;;1.70;;
46365;SDS011;32073;49.166;8.076;2023-03-24T09:28:22;2.80;;;1.80;;
46365;SDS011;32073;49.166;8.076;2023-03-24T09:32:23;3.03;;;1.70;;
46365;SDS011;32073;49.166;8.076;2023-03-24T09:36:24;1.90;;;1.65;;
46365;SDS011;32073;49.166;8.076;2023-03-24T09:40:27;2.90;;;1.67;;
46365;SDS011;32073;49.166;8.076;2023-03-24T09:44:40;3.45;;;1.65;;
46365;SDS011;32073;49.166;8.076;2023-03-24T09:48:52;3.08;;;1.67;;
46365;SDS011;32073;49.166;8.076;2023-03-24T09:52:58;1.52;;;1.42;;
46365;SDS011;32073;49.166;8.076;2023-03-24T09:57:10;2.42;;;1.38;;
46365;SDS011;32073;49.166;8.076;2023-03-24T10:01:39;1.50;;;1.08;;
46365;SDS011;32073;49.166;8.076;2023-03-24T10:05:45;1.20;;;1.10;;
46365;SDS011;32073;49.166;8.076;2023-03-24T10:10:23;0.90;;;0.88;;
46365;SDS011;32073;49.166;8.076;2023-03-24T10:27:36;3.17;;;1.25;;
46365;SDS011;32073;49.166;8.076;2023-03-24T10:31:48;1.63;;;1.10;;
46365;SDS011;32073;49.166;8.076;2023-03-24T10:36:03;3.80;;;0.90;;
46365;SDS011;32073;49.166;8.076;2023-03-24T10:40:14;1.02;;;0.65;;
46365;SDS011;32073;49.166;8.076;2023-03-24T10:44:18;2.73;;;0.70;;
46365;SDS011;32073;49.166;8.076;2023-03-24T10:52:40;1.13;;;0.88;;
46365;SDS011;32073;49.166;8.076;2023-03-24T11:01:06;1.42;;;1.20;;
46365;SDS011;32073;49.166;8.076;2023-03-24T11:05:26;1.23;;;0.70;;
46365;SDS011;32073;49.166;8.076;2023-03-24T11:09:37;0.85;;;0.63;;
46365;SDS011;32073;49.166;8.076;2023-03-24T11:13:42;3.20;;;1.35;;
46365;SDS011;32073;49.166;8.076;2023-03-24T11:22:13;1.00;;;0.85;;
46365;SDS011;32073;49.166;8.076;2023-03-24T11:26:14;2.05;;;1.00;;
46365;SDS011;32073;49.166;8.076;2023-03-24T11:30:32;1.40;;;0.52;;
46365;SDS011;32073;49.166;8.076;2023-03-24T11:34:45;2.47;;;1.02;;
46365;SDS011;32073;49.166;8.076;2023-03-24T11:38:47;4.82;;;2.17;;
46365;SDS011;32073;49.166;8.076;2023-03-24T11:43:02;8.48;;;2.83;;
46365;SDS011;32073;49.166;8.076;2023-03-24T11:47:05;5.30;;;1.80;;
46365;SDS011;32073;49.166;8.076;2023-03-24T11:51:36;4.03;;;1.73;;
46365;SDS011;32073;49.166;8.076;2023-03-24T11:55:45;3.45;;;1.73;;
46365;SDS011;32073;49.166;8.076;2023-03-24T12:00:31;3.20;;;1.30;;
46365;SDS011;32073;49.166;8.076;2023-03-24T12:09:12;3.17;;;1.05;;
46365;SDS011;32073;49.166;8.076;2023-03-24T12:13:52;3.20;;;0.90;;
46365;SDS011;32073;49.166;8.076;2023-03-24T12:22:29;3.58;;;1.85;;
46365;SDS011;32073;49.166;8.076;2023-03-24T12:26:58;5.65;;;2.28;;
46365;SDS011;32073;49.166;8.076;2023-03-24T12:39:50;6.00;;;2.20;;
46365;SDS011;32073;49.166;8.076;2023-03-24T12:57:47;7.03;;;2.75;;
46365;SDS011;32073;49.166;8.076;2023-03-24T13:02:40;2.13;;;1.42;;
46365;SDS011;32073;49.166;8.076;2023-03-24T13:06:33;2.45;;;0.80;;
46365;SDS011;32073;49.166;8.076;2023-03-24T13:10:40;3.40;;;0.85;;
46365;SDS011;32073;49.166;8.076;2023-03-24T13:14:47;2.85;;;1.08;;
46365;SDS011;32073;49.166;8.076;2023-03-24T13:19:03;2.05;;;0.80;;
46365;SDS011;32073;49.166;8.076;2023-03-24T13:23:31;2.05;;;0.80;;
46365;SDS011;32073;49.166;8.076;2023-03-24T13:27:49;2.13;;;0.88;;
46365;SDS011;32073;49.166;8.076;2023-03-24T13:36:30;2.00;;;0.80;;
46365;SDS011;32073;49.166;8.076;2023-03-24T13:40:48;5.25;;;1.40;;
46365;SDS011;32073;49.166;8.076;2023-03-24T13:44:52;5.53;;;1.13;;
46365;SDS011;32073;49.166;8.076;2023-03-24T13:48:56;4.72;;;1.00;;
46365;SDS011;32073;49.166;8.076;2023-03-24T13:53:03;1.90;;;0.80;;
46365;SDS011;32073;49.166;8.076;2023-03-24T13:57:16;2.15;;;0.88;;
46365;SDS011;32073;49.166;8.076;2023-03-24T14:01:33;3.10;;;0.90;;
46365;SDS011;32073;49.166;8.076;2023-03-24T14:05:58;1.45;;;0.68;;
46365;SDS011;32073;49.166;8.076;2023-03-24T14:14:21;1.83;;;0.70;;
46365;SDS011;32073;49.166;8.076;2023-03-24T14:22:34;4.13;;;0.88;;
46365;SDS011;32073;49.166;8.076;2023-03-24T14:26:40;3.72;;;0.95;;
46365;SDS011;32073;49.166;8.076;2023-03-24T14:30:53;22.50;;;9.60;;
46365;SDS011;32073;49.166;8.076;2023-03-24T14:35:21;5.60;;;2.58;;
46365;SDS011;32073;49.166;8.076;2023-03-24T14:47:45;5.65;;;1.42;;
46365;SDS011;32073;49.166;8.076;2023-03-24T14:51:57;3.67;;;1.73;;
46365;SDS011;32073;49.166;8.076;2023-03-24T14:56:14;5.07;;;1.70;;
46365;SDS011;32073;49.166;8.076;2023-03-24T15:00:18;6.57;;;3.13;;
46365;SDS011;32073;49.166;8.076;2023-03-24T15:04:42;5.95;;;3.03;;
46365;SDS011;32073;49.166;8.076;2023-03-24T15:09:18;10.75;;;3.63;;
46365;SDS011;32073;49.166;8.076;2023-03-24T15:17:47;8.32;;;4.25;;
46365;SDS011;32073;49.166;8.076;2023-03-24T15:21:51;5.30;;;2.83;;
46365;SDS011;32073;49.166;8.076;2023-03-24T15:26:14;6.22;;;3.25;;
46365;SDS011;32073;49.166;8.076;2023-03-24T15:30:17;9.18;;;3.90;;
46365;SDS011;32073;49.166;8.076;2023-03-24T15:34:25;3.15;;;1.67;;
46365;SDS011;32073;49.166;8.076;2023-03-24T15:38:35;5.68;;;1.77;;
46365;SDS011;32073;49.166;8.076;2023-03-24T15:42:45;8.98;;;3.10;;
46365;SDS011;32073;49.166;8.076;2023-03-24T15:46:48;5.25;;;2.15;;
46365;SDS011;32073;49.166;8.076;2023-03-24T15:55:06;3.22;;;1.15;;
46365;SDS011;32073;49.166;8.076;2023-03-24T15:59:35;1.65;;;0.80;;
46365;SDS011;32073;49.166;8.076;2023-03-24T16:03:36;8.23;;;2.83;;
46365;SDS011;32073;49.166;8.076;2023-03-24T16:07:41;3.45;;;1.10;;
46365;SDS011;32073;49.166;8.076;2023-03-24T16:11:41;1.67;;;0.68;;
46365;SDS011;32073;49.166;8.076;2023-03-24T16:15:46;2.35;;;0.90;;
46365;SDS011;32073;49.166;8.076;2023-03-24T16:19:59;4.05;;;0.93;;
46365;SDS011;32073;49.166;8.076;2023-03-24T16:23:59;2.55;;;1.23;;
46365;SDS011;32073;49.166;8.076;2023-03-24T16:28:01;2.78;;;0.68;;
46365;SDS011;32073;49.166;8.076;2023-03-24T16:32:02;2.33;;;0.85;;
46365;SDS011;32073;49.166;8.076;2023-03-24T16:36:03;6.20;;;1.27;;
46365;SDS011;32073;49.166;8.076;2023-03-24T16:40:47;6.90;;;2.00;;
46365;SDS011;32073;49.166;8.076;2023-03-24T16:44:42;5.70;;;1.97;;
46365;SDS011;32073;49.166;8.076;2023-03-24T16:48:45;11.80;;;4.75;;
46365;SDS011;32073;49.166;8.076;2023-03-24T16:52:46;13.80;;;5.25;;
46365;SDS011;32073;49.166;8.076;2023-03-24T16:56:46;23.75;;;8.15;;
46365;SDS011;32073;49.166;8.076;2023-03-24T17:00:47;14.10;;;4.15;;
46365;SDS011;32073;49.166;8.076;2023-03-24T17:04:48;27.00;;;8.63;;
46365;SDS011;32073;49.166;8.076;2023-03-24T17:08:49;32.17;;;9.52;;
46365;SDS011;32073;49.166;8.076;2023-03-24T17:12:49;23.17;;;6.78;;
46365;SDS011;32073;49.166;8.076;2023-03-24T17:16:54;44.55;;;11.25;;
46365;SDS011;32073;49.166;8.076;2023-03-24T17:20:55;34.25;;;9.32;;
46365;SDS011;32073;49.166;8.076;2023-03-24T17:24:55;37.28;;;9.93;;
46365;SDS011;32073;49.166;8.076;2023-03-24T17:28:57;21.75;;;7.85;;
46365;SDS011;32073;49.166;8.076;2023-03-24T17:32:57;10.93;;;4.15;;
46365;SDS011;32073;49.166;8.076;2023-03-24T17:36:58;3.88;;;1.40;;
46365;SDS011;32073;49.166;8.076;2023-03-24T17:41:00;5.28;;;2.55;;
46365;SDS011;32073;49.166;8.076;2023-03-24T17:45:03;4.60;;;1.50;;
46365;SDS011;32073;49.166;8.076;2023-03-24T17:49:06;3.30;;;0.80;;
46365;SDS011;32073;49.166;8.076;2023-03-24T17:53:08;3.08;;;0.90;;
46365;SDS011;32073;49.166;8.076;2023-03-24T17:57:08;2.40;;;1.05;;
46365;SDS011;32073;49.166;8.076;2023-03-24T18:01:09;4.35;;;0.80;;
46365;SDS011;32073;49.166;8.076;2023-03-24T18:05:13;2.85;;;0.82;;
46365;SDS011;32073;49.166;8.076;2023-03-24T18:09:14;2.75;;;0.70;;
46365;SDS011;32073;49.166;8.076;2023-03-24T18:13:16;5.03;;;1.23;;
46365;SDS011;32073;49.166;8.076;2023-03-24T18:17:16;5.47;;;1.40;;
46365;SDS011;32073;49.166;8.076;2023-03-24T18:21:18;1.92;;;1.10;;
46365;SDS011;32073;49.166;8.076;2023-03-24T18:25:18;2.30;;;1.38;;
46365;SDS011;32073;49.166;8.076;2023-03-24T18:29:20;1.77;;;1.30;;
46365;SDS011;32073;49.166;8.076;2023-03-24T18:33:22;2.05;;;1.08;;
46365;SDS011;32073;49.166;8.076;2023-03-24T18:37:23;2.33;;;1.20;;
46365;SDS011;32073;49.166;8.076;2023-03-24T18:41:24;3.17;;;1.73;;
46365;SDS011;32073;49.166;8.076;2023-03-24T18:45:27;5.00;;;2.72;;
46365;SDS011;32073;49.166;8.076;2023-03-24T18:49:27;3.08;;;2.00;;
46365;SDS011;32073;49.166;8.076;2023-03-24T18:53:28;5.10;;;3.25;;
46365;SDS011;32073;49.166;8.076;2023-03-24T18:57:29;6.00;;;4.22;;
46365;SDS011;32073;49.166;8.076;2023-03-24T19:01:30;3.67;;;1.80;;
46365;SDS011;32073;49.166;8.076;2023-03-24T19:05:31;3.28;;;1.40;;
46365;SDS011;32073;49.166;8.076;2023-03-24T19:09:33;2.42;;;1.30;;
46365;SDS011;32073;49.166;8.076;2023-03-24T19:13:34;2.55;;;1.60;;
46365;SDS011;32073;49.166;8.076;2023-03-24T19:17:35;1.58;;;1.20;;
46365;SDS011;32073;49.166;8.076;2023-03-24T19:21:35;2.97;;;1.00;;
46365;SDS011;32073;49.166;8.076;2023-03-24T19:25:36;3.88;;;1.17;;
46365;SDS011;32073;49.166;8.076;2023-03-24T19:29:38;2.10;;;1.17;;
46365;SDS011;32073;49.166;8.076;2023-03-24T19:33:39;1.38;;;0.90;;
46365;SDS011;32073;49.166;8.076;2023-03-24T19:37:40;2.17;;;1.08;;
46365;SDS011;32073;49.166;8.076;2023-03-24T19:41:41;1.35;;;0.98;;
46365;SDS011;32073;49.166;8.076;2023-03-24T19:45:42;3.75;;;1.25;;
46365;SDS011;32073;49.166;8.076;2023-03-24T19:49:47;1.30;;;0.98;;
46365;SDS011;32073;49.166;8.076;2023-03-24T19:53:48;2.45;;;1.20;;
46365;SDS011;32073;49.166;8.076;2023-03-24T19:57:49;2.00;;;1.10;;
46365;SDS011;32073;49.166;8.076;2023-03-24T20:01:50;2.97;;;1.00;;
46365;SDS011;32073;49.166;8.076;2023-03-24T20:05:50;3.17;;;0.80;;
46365;SDS011;32073;49.166;8.076;2023-03-24T20:09:51;2.13;;;0.70;;
46365;SDS011;32073;49.166;8.076;2023-03-24T20:13:52;4.57;;;0.80;;
46365;SDS011;32073;49.166;8.076;2023-03-24T20:17:53;2.35;;;0.98;;
46365;SDS011;32073;49.166;8.076;2023-03-24T20:21:53;3.20;;;0.73;;
46365;SDS011;32073;49.166;8.076;2023-03-24T20:25:57;3.63;;;0.93;;
46365;SDS011;32073;49.166;8.076;2023-03-24T20:29:58;3.42;;;0.70;;
46365;SDS011;32073;49.166;8.076;2023-03-24T20:33:59;2.22;;;0.68;;
46365;SDS011;32073;49.166;8.076;2023-03-24T20:38:00;5.70;;;1.90;;
46365;SDS011;32073;49.166;8.076;2023-03-24T20:42:01;7.82;;;2.90;;
46365;SDS011;32073;49.166;8.076;2023-03-24T20:46:05;10.35;;;4.43;;
46365;SDS011;32073;49.166;8.076;2023-03-24T20:50:08;4.63;;;2.35;;
46365;SDS011;32073;49.166;8.076;2023-03-24T20:54:09;11.98;;;5.28;;
46365;SDS011;32073;49.166;8.076;2023-03-24T20:58:11;22.13;;;10.35;;
46365;SDS011;32073;49.166;8.076;2023-03-24T21:02:12;10.15;;;5.20;;
46365;SDS011;32073;49.166;8.076;2023-03-24T21:06:14;5.63;;;2.15;;
46365;SDS011;32073;49.166;8.076;2023-03-24T21:10:16;6.88;;;2.85;;
46365;SDS011;32073;49.166;8.076;2023-03-24T21:14:17;5.40;;;2.67;;
46365;SDS011;32073;49.166;8.076;2023-03-24T21:18:17;8.60;;;5.72;;
46365;SDS011;32073;49.166;8.076;2023-03-24T21:22:18;5.82;;;3.10;;
46365;SDS011;32073;49.166;8.076;2023-03-24T21:26:19;3.58;;;1.65;;
46365;SDS011;32073;49.166;8.076;2023-03-24T21:30:19;11.70;;;3.78;;
46365;SDS011;32073;49.166;8.076;2023-03-24T21:34:22;4.97;;;2.72;;
46365;SDS011;32073;49.166;8.076;2023-03-24T21:38:23;5.35;;;1.85;;
46365;SDS011;32073;49.166;8.076;2023-03-24T21:42:23;4.30;;;1.77;;
46365;SDS011;32073;49.166;8.076;2023-03-24T21:46:24;5.90;;;3.70;;
46365;SDS011;32073;49.166;8.076;2023-03-24T21:50:26;3.33;;;1.85;;
46365;SDS011;32073;49.166;8.076;2023-03-24T21:54:27;5.32;;;2.47;;
46365;SDS011;32073;49.166;8.076;2023-03-24T21:58:30;4.07;;;2.42;;
46365;SDS011;32073;49.166;8.076;2023-03-24T22:02:31;1.67;;;1.35;;
46365;SDS011;32073;49.166;8.076;2023-03-24T22:06:33;2.08;;;1.20;;
46365;SDS011;32073;49.166;8.076;2023-03-24T22:10:37;2.45;;;1.15;;
46365;SDS011;32073;49.166;8.076;2023-03-24T22:14:42;3.78;;;2.25;;
46365;SDS011;32073;49.166;8.076;2023-03-24T22:18:42;3.38;;;1.70;;
46365;SDS011;32073;49.166;8.076;2023-03-24T22:22:43;3.80;;;1.40;;
46365;SDS011;32073;49.166;8.076;2023-03-24T22:26:44;2.33;;;0.95;;
46365;SDS011;32073;49.166;8.076;2023-03-24T22:30:45;10.25;;;4.20;;
46365;SDS011;32073;49.166;8.076;2023-03-24T22:34:45;4.10;;;1.55;;
46365;SDS011;32073;49.166;8.076;2023-03-24T22:38:46;6.28;;;1.95;;
46365;SDS011;32073;49.166;8.076;2023-03-24T22:42:47;3.80;;;1.30;;
46365;SDS011;32073;49.166;8.076;2023-03-24T22:46:47;1.45;;;0.80;;
46365;SDS011;32073;49.166;8.076;2023-03-24T22:50:48;1.35;;;0.68;;
46365;SDS011;32073;49.166;8.076;2023-03-24T22:54:49;2.47;;;0.65;;
46365;SDS011;32073;49.166;8.076;2023-03-24T22:58:50;4.45;;;2.28;;
46365;SDS011;32073;49.166;8.076;2023-03-24T23:02:51;2.15;;;0.70;;
46365;SDS011;32073;49.166;8.076;2023-03-24T23:06:52;0.88;;;0.60;;
46365;SDS011;32073;49.166;8.076;2023-03-24T23:10:56;0.80;;;0.38;;
46365;SDS011;32073;49.166;8.076;2023-03-24T23:14:58;1.60;;;0.47;;
46365;SDS011;32073;49.166;8.076;2023-03-24T23:19:00;0.70;;;0.30;;
46365;SDS011;32073;49.166;8.076;2023-03-24T23:23:01;2.67;;;0.47;;
46365;SDS011;32073;49.166;8.076;2023-03-24T23:27:02;2.17;;;0.50;;
46365;SDS011;32073;49.166;8.076;2023-03-24T23:31:08;3.42;;;0.40;;
46365;SDS011;32073;49.166;8.076;2023-03-24T23:35:13;1.75;;;0.38;;
46365;SDS011;32073;49.166;8.076;2023-03-24T23:39:14;1.08;;;0.30;;
46365;SDS011;32073;49.166;8.076;2023-03-24T23:43:16;1.00;;;0.30;;
46365;SDS011;32073;49.166;8.076;2023-03-24T23:47:16;1.55;;;0.40;;
46365;SDS011;32073;49.166;8.076;2023-03-24T23:51:17;0.80;;;0.30;;
46365;SDS011;32073;49.166;8.076;2023-03-24T23:55:18;1.75;;;0.47;;
46365;SDS011;32073;49.166;8.076;2023-03-24T23:59:19;1.30;;;0.40;;
